createdAt,value
2017-05-04T00:00:17.596Z,24.94
2017-05-04T00:02:45.532Z,25.06
2017-05-04T00:05:13.828Z,24.92
2017-05-04T00:07:41.785Z,28.20
2017-05-04T00:10:09.314Z,24.88
2017-05-04T00:12:37.245Z,25.66
2017-05-04T00:15:05.196Z,26.50
2017-05-04T00:17:33.140Z,24.54
2017-05-04T00:20:01.063Z,26.14
2017-05-04T00:22:29.019Z,24.92
2017-05-04T00:24:56.953Z,23.92
2017-05-04T00:27:24.884Z,25.96
2017-05-04T00:29:52.840Z,26.58
2017-05-04T00:32:20.761Z,24.50
2017-05-04T00:34:48.744Z,26.14
2017-05-04T00:37:17.070Z,24.90
2017-05-04T00:39:44.999Z,25.52
2017-05-04T00:42:12.928Z,25.98
2017-05-04T00:44:40.887Z,24.88
2017-05-04T00:47:08.852Z,24.54
2017-05-04T00:49:36.789Z,26.02
2017-05-04T00:52:04.724Z,28.92
2017-05-04T00:54:32.686Z,26.80
2017-05-04T00:57:00.607Z,27.90
2017-05-04T00:59:28.540Z,26.42
2017-05-04T01:01:56.414Z,27.22
2017-05-04T01:04:24.714Z,26.94
2017-05-04T01:06:52.248Z,27.64
2017-05-04T01:09:20.591Z,27.02
2017-05-04T01:11:48.524Z,28.30
2017-05-04T01:14:16.418Z,26.26
2017-05-04T01:16:44.408Z,25.06
2017-05-04T01:19:12.336Z,25.02
2017-05-04T01:21:39.867Z,27.24
2017-05-04T01:24:07.450Z,27.56
2017-05-04T01:26:35.377Z,26.00
2017-05-04T01:29:03.307Z,25.06
2017-05-04T01:31:31.275Z,26.82
2017-05-04T01:33:59.204Z,27.12
2017-05-04T01:36:26.731Z,26.74
2017-05-04T01:38:54.735Z,26.86
2017-05-04T01:41:23.039Z,26.90
2017-05-04T01:43:50.576Z,25.46
2017-05-04T01:46:18.916Z,27.34
2017-05-04T01:48:46.915Z,27.34
2017-05-04T01:51:14.451Z,29.36
2017-05-04T01:53:42.455Z,30.48
2017-05-04T01:56:10.387Z,31.16
2017-05-04T01:58:38.328Z,29.98
2017-05-04T02:01:06.302Z,28.32
2017-05-04T02:03:34.232Z,32.96
2017-05-04T02:06:02.532Z,28.52
2017-05-04T02:08:30.484Z,31.26
2017-05-04T02:10:58.796Z,28.46
2017-05-04T02:13:26.344Z,28.36
2017-05-04T02:15:54.290Z,29.10
2017-05-04T02:18:22.223Z,30.48
2017-05-04T02:20:50.156Z,30.34
2017-05-04T02:23:18.112Z,32.30
2017-05-04T02:25:46.420Z,30.10
2017-05-04T02:28:14.659Z,29.92
2017-05-04T02:30:42.217Z,32.92
2017-05-04T02:33:10.515Z,32.98
2017-05-04T02:35:38.021Z,35.68
2017-05-04T02:38:06.037Z,36.18
2017-05-04T02:40:34.343Z,36.48
2017-05-04T02:43:02.290Z,36.10
2017-05-04T02:45:30.620Z,34.62
2017-05-04T02:47:58.566Z,35.04
2017-05-04T02:50:26.488Z,32.26
2017-05-04T02:52:54.044Z,33.98
2017-05-04T02:55:21.977Z,31.24
2017-05-04T02:57:49.918Z,36.08
2017-05-04T03:00:17.873Z,31.56
2017-05-04T03:02:46.182Z,33.88
2017-05-04T03:05:14.111Z,29.90
2017-05-04T03:07:42.832Z,32.90
2017-05-04T03:10:10.759Z,33.26
2017-05-04T03:12:38.715Z,30.24
2017-05-04T03:15:06.672Z,32.02
2017-05-04T03:17:34.604Z,33.50
2017-05-04T03:20:02.548Z,30.90
2017-05-04T03:22:30.107Z,31.34
2017-05-04T03:24:58.427Z,29.70
2017-05-04T03:27:26.369Z,30.70
2017-05-04T03:29:53.922Z,28.54
2017-05-04T03:32:22.228Z,27.34
2017-05-04T03:34:49.780Z,25.12
2017-05-04T03:37:17.756Z,26.18
2017-05-04T03:39:45.732Z,25.78
2017-05-04T03:42:13.655Z,24.46
2017-05-04T03:44:41.224Z,24.46
2017-05-04T03:47:09.163Z,24.30
2017-05-04T03:49:37.091Z,24.48
2017-05-04T03:52:05.044Z,24.90
2017-05-04T03:54:33.383Z,25.14
2017-05-04T03:57:01.316Z,26.36
2017-05-04T03:59:29.271Z,27.52
2017-05-04T04:01:56.803Z,28.62
2017-05-04T04:04:24.759Z,27.66
2017-05-04T04:06:52.719Z,26.98
2017-05-04T04:09:20.652Z,26.12
2017-05-04T04:11:48.588Z,27.00
2017-05-04T04:14:16.152Z,28.20
2017-05-04T04:16:44.092Z,30.04
2017-05-04T04:19:12.027Z,29.38
2017-05-04T04:21:39.982Z,30.50
2017-05-04T04:24:07.911Z,29.86
2017-05-04T04:26:35.844Z,31.70
2017-05-04T04:29:03.803Z,31.00
2017-05-04T04:31:31.735Z,30.02
2017-05-04T04:33:59.676Z,30.10
2017-05-04T04:36:27.237Z,29.54
2017-05-04T04:38:55.180Z,30.58
2017-05-04T04:41:23.106Z,30.60
2017-05-04T04:43:51.073Z,30.52
2017-05-04T04:46:19.004Z,30.00
2017-05-04T04:48:46.936Z,31.30
2017-05-04T04:51:15.261Z,29.32
2017-05-04T04:53:43.192Z,29.96
2017-05-04T04:56:11.124Z,29.46
2017-05-04T04:58:38.679Z,29.08
2017-05-04T05:01:06.616Z,31.52
2017-05-04T05:03:34.558Z,30.60
2017-05-04T05:06:02.884Z,29.48
2017-05-04T05:08:30.817Z,31.28
2017-05-04T05:10:58.752Z,30.32
2017-05-04T05:13:26.714Z,32.96
2017-05-04T05:15:54.639Z,31.52
2017-05-04T05:18:22.576Z,32.36
2017-05-04T05:20:50.903Z,34.46
2017-05-04T05:23:18.835Z,29.80
2017-05-04T05:25:46.778Z,29.92
2017-05-04T05:28:14.736Z,32.44
2017-05-04T05:30:42.685Z,31.62
2017-05-04T05:33:10.212Z,31.74
2017-05-04T05:35:38.175Z,33.06
2017-05-04T05:38:06.123Z,34.38
2017-05-04T05:40:34.423Z,33.98
2017-05-04T05:43:02.342Z,30.64
2017-05-04T05:45:29.925Z,32.50
2017-05-04T05:47:57.455Z,31.18
2017-05-04T05:50:25.419Z,32.10
2017-05-04T05:52:53.347Z,33.88
2017-05-04T05:55:21.655Z,31.66
2017-05-04T05:57:49.622Z,32.60
2017-05-04T06:00:17.550Z,31.92
2017-05-04T06:02:45.484Z,33.92
2017-05-04T06:05:13.447Z,35.86
2017-05-04T06:07:41.383Z,32.68
2017-05-04T06:10:08.951Z,32.66
2017-05-04T06:12:36.912Z,31.54
2017-05-04T06:15:04.859Z,33.44
2017-05-04T06:17:32.796Z,35.28
2017-05-04T06:20:00.757Z,34.08
2017-05-04T06:22:28.694Z,34.02
2017-05-04T06:24:56.629Z,33.72
2017-05-04T06:27:24.582Z,32.24
2017-05-04T06:29:52.523Z,33.68
2017-05-04T06:32:20.096Z,33.00
2017-05-04T06:34:48.040Z,31.80
2017-05-04T06:37:15.975Z,35.56
2017-05-04T06:39:43.932Z,32.16
2017-05-04T06:42:11.871Z,31.58
2017-05-04T06:44:39.824Z,34.22
2017-05-04T06:47:07.788Z,32.66
2017-05-04T06:49:35.336Z,34.60
2017-05-04T06:52:03.644Z,34.78
2017-05-04T06:54:31.202Z,33.76
2017-05-04T06:56:59.150Z,35.36
2017-05-04T06:59:27.088Z,36.10
2017-05-04T07:01:55.049Z,36.84
2017-05-04T07:04:22.984Z,34.84
2017-05-04T07:06:51.034Z,32.92
2017-05-04T07:09:18.994Z,36.20
2017-05-04T07:11:47.299Z,35.44
2017-05-04T07:14:15.259Z,37.06
2017-05-04T07:16:43.200Z,34.86
2017-05-04T07:19:11.136Z,35.78
2017-05-04T07:21:39.108Z,35.22
2017-05-04T07:24:07.056Z,33.44
2017-05-04T07:26:34.984Z,35.06
2017-05-04T07:29:03.382Z,35.18
2017-05-04T07:31:31.676Z,34.54
2017-05-04T07:33:59.238Z,34.18
2017-05-04T07:36:27.200Z,33.90
2017-05-04T07:38:54.745Z,34.66
2017-05-04T07:41:23.047Z,34.64
2017-05-04T07:43:51.008Z,35.46
2017-05-04T07:46:18.944Z,35.46
2017-05-04T07:48:46.893Z,35.50
2017-05-04T07:51:14.867Z,36.36
2017-05-04T07:53:42.818Z,33.50
2017-05-04T07:56:10.364Z,39.54
2017-05-04T07:58:38.327Z,37.42
2017-05-04T08:01:06.695Z,36.90
2017-05-04T08:03:34.631Z,36.16
2017-05-04T08:06:02.629Z,36.80
2017-05-04T08:08:30.163Z,37.90
2017-05-04T08:10:58.099Z,34.40
2017-05-04T08:13:26.063Z,35.70
2017-05-04T08:15:53.611Z,35.58
2017-05-04T08:18:21.153Z,33.52
2017-05-04T08:20:49.111Z,36.20
2017-05-04T08:23:17.447Z,33.90
2017-05-04T08:25:45.396Z,35.56
2017-05-04T08:28:12.947Z,35.00
2017-05-04T08:30:40.891Z,33.48
2017-05-04T08:33:08.445Z,36.14
2017-05-04T08:35:36.382Z,33.14
2017-05-04T08:38:04.341Z,35.64
2017-05-04T08:40:32.297Z,36.72
2017-05-04T08:43:00.244Z,34.48
2017-05-04T08:45:28.195Z,34.00
2017-05-04T08:47:56.504Z,34.50
2017-05-04T08:50:24.459Z,34.96
2017-05-04T08:52:52.403Z,35.96
2017-05-04T08:55:20.343Z,35.52
2017-05-04T08:57:48.295Z,36.50
2017-05-04T09:00:16.238Z,35.08
2017-05-04T09:02:44.544Z,35.04
2017-05-04T09:05:12.508Z,32.38
2017-05-04T09:07:40.477Z,35.68
2017-05-04T09:10:08.427Z,34.92
2017-05-04T09:12:36.403Z,34.14
2017-05-04T09:15:04.339Z,36.42
2017-05-04T09:17:32.308Z,35.90
2017-05-04T09:19:59.853Z,34.94
2017-05-04T09:22:27.790Z,36.26
2017-05-04T09:24:55.753Z,36.06
2017-05-04T09:27:23.687Z,34.08
2017-05-04T09:29:51.632Z,34.80
2017-05-04T09:32:19.588Z,31.38
2017-05-04T09:34:47.527Z,32.84
2017-05-04T09:37:15.467Z,32.20
2017-05-04T09:39:43.799Z,34.88
2017-05-04T09:42:11.760Z,33.10
2017-05-04T09:44:39.695Z,35.74
2017-05-04T09:47:07.627Z,34.48
2017-05-04T09:49:35.592Z,34.70
2017-05-04T09:52:03.523Z,34.38
2017-05-04T09:54:31.466Z,35.20
2017-05-04T09:56:59.815Z,32.00
2017-05-04T09:59:27.767Z,33.20
2017-05-04T10:01:55.707Z,32.60
2017-05-04T10:04:23.697Z,33.10
2017-05-04T10:06:51.623Z,29.72
2017-05-04T10:09:19.563Z,31.50
2017-05-04T10:11:47.519Z,30.62
2017-05-04T10:14:15.472Z,30.18
2017-05-04T10:16:43.006Z,31.34
2017-05-04T10:19:10.568Z,29.88
2017-05-04T10:21:38.879Z,28.86
2017-05-04T10:24:06.812Z,27.78
2017-05-04T10:26:35.140Z,29.02
2017-05-04T10:29:03.103Z,27.52
2017-05-04T10:31:30.651Z,26.10
2017-05-04T10:33:58.621Z,24.64
2017-05-04T10:36:26.168Z,24.82
2017-05-04T10:38:54.108Z,23.90
2017-05-04T10:41:21.668Z,22.46
2017-05-04T10:43:49.603Z,25.94
2017-05-04T10:46:17.540Z,26.42
2017-05-04T10:48:45.496Z,24.00
2017-05-04T10:51:13.031Z,25.16
2017-05-04T10:53:40.978Z,25.04
2017-05-04T10:56:08.945Z,24.58
2017-05-04T10:58:36.480Z,25.52
2017-05-04T11:01:04.415Z,26.42
2017-05-04T11:03:32.756Z,23.04
2017-05-04T11:06:00.687Z,23.84
2017-05-04T11:08:28.626Z,24.26
2017-05-04T11:10:56.583Z,22.56
2017-05-04T11:13:24.132Z,20.96
2017-05-04T11:15:52.073Z,21.76
2017-05-04T11:18:20.031Z,20.86
2017-05-04T11:20:47.967Z,20.38
2017-05-04T11:23:15.905Z,21.74
2017-05-04T11:25:43.860Z,19.82
2017-05-04T11:28:11.808Z,21.50
2017-05-04T11:30:39.748Z,20.30
2017-05-04T11:33:07.698Z,21.12
2017-05-04T11:35:35.631Z,20.50
2017-05-04T11:38:03.559Z,18.32
2017-05-04T11:40:31.892Z,19.12
2017-05-04T11:42:59.436Z,18.10
2017-05-04T11:45:27.363Z,17.92
2017-05-04T11:47:55.320Z,17.02
2017-05-04T11:50:23.260Z,16.84
2017-05-04T11:52:51.185Z,17.18
2017-05-04T11:55:19.519Z,19.38
2017-05-04T11:57:47.455Z,19.66
2017-05-04T12:00:15.395Z,17.50
2017-05-04T12:02:43.351Z,18.70
2017-05-04T12:05:11.308Z,19.20
2017-05-04T12:07:39.254Z,18.48
2017-05-04T12:10:07.188Z,19.66
2017-05-04T12:12:34.728Z,19.74
2017-05-04T12:15:02.708Z,17.54
2017-05-04T12:17:30.648Z,21.10
2017-05-04T12:19:58.584Z,19.38
2017-05-04T12:22:26.135Z,20.06
2017-05-04T12:24:53.675Z,20.10
2017-05-04T12:27:21.249Z,21.50
2017-05-04T12:29:49.562Z,21.76
2017-05-04T12:32:17.127Z,20.28
2017-05-04T12:34:45.060Z,20.30
2017-05-04T12:37:12.987Z,21.04
2017-05-04T12:39:40.957Z,20.48
2017-05-04T12:42:08.883Z,21.58
2017-05-04T12:44:36.825Z,21.52
2017-05-04T12:47:05.155Z,20.22
2017-05-04T12:49:33.087Z,21.50
2017-05-04T12:52:01.032Z,19.86
2017-05-04T12:54:28.995Z,21.22
2017-05-04T12:56:56.563Z,21.34
2017-05-04T12:59:24.495Z,22.28
2017-05-04T13:01:52.457Z,22.14
2017-05-04T13:04:20.026Z,23.08
2017-05-04T13:06:47.969Z,25.54
2017-05-04T13:09:15.924Z,25.30
2017-05-04T13:11:43.482Z,23.76
2017-05-04T13:14:11.019Z,25.02
2017-05-04T13:16:38.956Z,26.08
2017-05-04T13:19:06.911Z,24.68
2017-05-04T13:21:34.456Z,26.20
2017-05-04T13:24:02.382Z,26.44
2017-05-04T13:26:30.340Z,24.92
2017-05-04T13:28:58.275Z,26.68
2017-05-04T13:31:26.211Z,25.68
2017-05-04T13:33:54.543Z,26.44
2017-05-04T13:36:22.483Z,26.74
2017-05-04T13:38:50.411Z,26.12
2017-05-04T13:41:17.994Z,26.52
2017-05-04T13:43:46.286Z,26.24
2017-05-04T13:46:14.219Z,25.28
2017-05-04T13:48:42.191Z,28.44
2017-05-04T13:51:10.128Z,26.44
2017-05-04T13:53:38.064Z,26.34
2017-05-04T13:56:06.024Z,26.64
2017-05-04T13:58:34.335Z,25.88
2017-05-04T14:01:02.293Z,25.04
2017-05-04T14:03:30.255Z,27.14
2017-05-04T14:05:58.195Z,29.06
2017-05-04T14:08:26.152Z,28.20
2017-05-04T14:10:54.455Z,25.68
2017-05-04T14:13:22.755Z,29.60
2017-05-04T14:15:50.700Z,27.30
2017-05-04T14:18:18.669Z,25.70
2017-05-04T14:20:46.611Z,24.50
2017-05-04T14:23:14.559Z,23.00
2017-05-04T14:25:42.524Z,22.48
2017-05-04T14:28:10.100Z,20.48
2017-05-04T14:30:37.660Z,21.42
2017-05-04T14:33:05.588Z,19.20
2017-05-04T14:35:33.153Z,20.14
2017-05-04T14:38:01.088Z,19.50
2017-05-04T14:40:28.639Z,19.74
2017-05-04T14:42:56.599Z,20.28
2017-05-04T14:45:24.537Z,17.84
2017-05-04T14:47:52.476Z,18.16
2017-05-04T14:50:20.803Z,16.70
2017-05-04T14:52:48.751Z,15.80
2017-05-04T14:55:16.688Z,12.40
2017-05-04T14:57:44.683Z,9.30
2017-05-04T15:00:12.231Z,9.92
2017-05-04T15:02:40.531Z,11.50
2017-05-04T15:05:08.467Z,10.98
2017-05-04T15:07:36.422Z,13.36
2017-05-04T15:10:04.348Z,13.70
2017-05-04T15:12:33.167Z,14.46
2017-05-04T15:15:01.100Z,15.86
2017-05-04T15:17:29.035Z,13.80
2017-05-04T15:19:56.596Z,14.34
2017-05-04T15:22:24.536Z,15.06
2017-05-04T15:24:52.464Z,14.12
2017-05-04T15:27:20.419Z,17.24
2017-05-04T15:29:47.959Z,15.12
2017-05-04T15:32:15.896Z,16.90
2017-05-04T15:34:43.847Z,17.60
2017-05-04T15:37:11.392Z,17.20
2017-05-04T15:39:39.352Z,15.54
2017-05-04T15:42:07.659Z,15.02
2017-05-04T15:44:35.611Z,16.34
2017-05-04T15:47:03.572Z,14.90
2017-05-04T15:49:31.870Z,15.80
2017-05-04T15:51:59.856Z,16.30
2017-05-04T15:54:27.794Z,15.60
2017-05-04T15:56:56.118Z,15.28
2017-05-04T15:59:24.140Z,14.68
2017-05-04T16:01:52.450Z,14.96
2017-05-04T16:04:20.387Z,15.64
2017-05-04T16:06:47.968Z,15.26
2017-05-04T16:09:15.915Z,12.40
2017-05-04T16:11:44.220Z,13.04
2017-05-04T16:14:11.784Z,12.14
2017-05-04T16:16:39.711Z,12.42
2017-05-04T16:19:07.639Z,14.42
2017-05-04T16:21:35.220Z,13.26
2017-05-04T16:24:03.157Z,13.18
2017-05-04T16:26:31.085Z,12.40
2017-05-04T16:28:59.037Z,12.80
2017-05-04T16:31:26.967Z,13.48
2017-05-04T16:33:54.895Z,15.44
2017-05-04T16:36:22.852Z,13.74
2017-05-04T16:38:50.786Z,14.10
2017-05-04T16:41:18.735Z,14.54
2017-05-04T16:43:46.697Z,12.72
2017-05-04T16:46:15.003Z,13.18
2017-05-04T16:48:42.955Z,15.14
2017-05-04T16:51:10.516Z,14.30
2017-05-04T16:53:38.447Z,15.30
2017-05-04T16:56:06.392Z,13.18
2017-05-04T16:58:34.355Z,15.34
2017-05-04T17:01:02.317Z,12.52
2017-05-04T17:03:29.860Z,14.90
2017-05-04T17:05:57.788Z,13.62
2017-05-04T17:08:25.776Z,15.36
2017-05-04T17:10:53.336Z,14.24
2017-05-04T17:13:21.666Z,13.96
2017-05-04T17:15:49.611Z,13.40
2017-05-04T17:18:17.566Z,14.78
2017-05-04T17:20:45.556Z,12.98
2017-05-04T17:23:13.521Z,14.16
2017-05-04T17:25:41.076Z,13.80
2017-05-04T17:28:09.194Z,15.04
2017-05-04T17:30:37.349Z,12.66
2017-05-04T17:33:05.373Z,14.80
2017-05-04T17:35:33.037Z,12.98
2017-05-04T17:38:00.679Z,11.92
2017-05-04T17:40:28.539Z,11.56
2017-05-04T17:42:56.883Z,11.98
2017-05-04T17:45:24.644Z,12.88
2017-05-04T17:47:52.316Z,11.34
2017-05-04T17:50:20.398Z,11.84
2017-05-04T17:52:48.358Z,11.82
2017-05-04T17:55:16.126Z,11.00
2017-05-04T17:57:44.284Z,11.98
2017-05-04T18:00:12.351Z,11.38
2017-05-04T18:02:40.377Z,10.74
2017-05-04T18:05:08.698Z,11.94
2017-05-04T18:07:36.994Z,13.10
2017-05-04T18:10:05.506Z,11.86
2017-05-04T18:12:34.627Z,13.14
2017-05-04T18:15:03.490Z,12.86
2017-05-04T18:17:32.381Z,12.20
2017-05-04T18:20:00.996Z,12.66
2017-05-04T18:22:29.920Z,13.16
2017-05-04T18:24:58.864Z,12.02
2017-05-04T18:27:27.741Z,12.52
2017-05-04T18:29:56.817Z,11.86
2017-05-04T18:32:25.934Z,13.38
2017-05-04T18:34:54.848Z,13.74
2017-05-04T18:37:23.739Z,12.82
2017-05-04T18:39:52.712Z,13.38
2017-05-04T18:42:21.965Z,12.60
2017-05-04T18:44:50.904Z,12.42
2017-05-04T18:47:19.835Z,12.54
2017-05-04T18:49:48.928Z,13.46
2017-05-04T18:52:17.966Z,11.80
2017-05-04T18:54:47.324Z,13.76
2017-05-04T18:57:16.412Z,12.56
2017-05-04T18:59:45.332Z,12.32
2017-05-04T19:02:14.601Z,14.18
2017-05-04T19:04:43.666Z,12.62
2017-05-04T19:07:12.951Z,13.66
2017-05-04T19:09:42.648Z,14.08
2017-05-04T19:12:11.925Z,13.46
2017-05-04T19:14:41.998Z,12.54
2017-05-04T19:17:11.189Z,14.08
2017-05-04T19:19:40.639Z,13.98
2017-05-04T19:22:09.950Z,13.22
2017-05-04T19:24:39.274Z,13.84
2017-05-04T19:27:08.351Z,13.38
2017-05-04T19:29:37.319Z,15.22
2017-05-04T19:32:06.272Z,14.02
2017-05-04T19:34:35.938Z,14.94
2017-05-04T19:37:05.192Z,14.68
2017-05-04T19:39:34.697Z,15.42
2017-05-04T19:42:04.008Z,14.46
2017-05-04T19:44:33.273Z,14.62
2017-05-04T19:47:02.222Z,14.20
2017-05-04T19:49:31.298Z,12.74
2017-05-04T19:52:00.693Z,13.82
2017-05-04T19:54:30.111Z,13.38
2017-05-04T19:56:59.502Z,12.88
2017-05-04T19:59:28.823Z,11.78
2017-05-04T20:01:57.796Z,12.24
2017-05-04T20:04:27.247Z,13.96
2017-05-04T20:06:56.314Z,14.24
2017-05-04T20:09:25.301Z,13.78
2017-05-04T20:11:54.608Z,13.76
2017-05-04T20:14:23.750Z,13.92
2017-05-04T20:16:52.942Z,12.92
2017-05-04T20:19:21.996Z,15.28
2017-05-04T20:21:50.867Z,15.30
2017-05-04T20:24:19.451Z,14.28
2017-05-04T20:26:47.956Z,13.82
2017-05-04T20:29:17.711Z,15.80
2017-05-04T20:31:46.600Z,14.64
2017-05-04T20:34:15.545Z,13.64
2017-05-04T20:36:44.457Z,14.68
2017-05-04T20:39:12.822Z,15.56
2017-05-04T20:41:41.827Z,16.00
2017-05-04T20:44:09.716Z,16.28
2017-05-04T20:46:38.048Z,15.60
2017-05-04T20:49:06.452Z,16.70
2017-05-04T20:51:34.818Z,17.62
2017-05-04T20:54:03.041Z,18.26
2017-05-04T20:56:30.850Z,18.02
2017-05-04T20:58:59.162Z,18.28
2017-05-04T21:01:27.268Z,17.28
2017-05-04T21:03:55.202Z,16.82
2017-05-04T21:06:23.140Z,16.76
2017-05-04T21:08:51.463Z,18.50
2017-05-04T21:11:19.420Z,16.66
2017-05-04T21:13:47.352Z,15.96
2017-05-04T21:16:15.679Z,17.42
2017-05-04T21:18:43.620Z,18.34
2017-05-04T21:21:11.184Z,18.06
2017-05-04T21:23:39.139Z,17.62
2017-05-04T21:26:07.459Z,16.68
2017-05-04T21:28:35.416Z,18.26
2017-05-04T21:31:03.351Z,18.44
2017-05-04T21:33:30.911Z,18.40
2017-05-04T21:35:59.216Z,18.94
2017-05-04T21:38:27.140Z,18.12
2017-05-04T21:40:56.630Z,19.50
2017-05-04T21:43:24.567Z,21.04
2017-05-04T21:45:52.503Z,21.36
2017-05-04T21:48:20.076Z,21.72
2017-05-04T21:50:48.031Z,22.28
2017-05-04T21:53:16.369Z,24.04
2017-05-04T21:55:44.303Z,23.92
2017-05-04T21:58:12.266Z,25.48
2017-05-04T22:00:40.563Z,26.00
2017-05-04T22:03:08.097Z,24.76
2017-05-04T22:05:36.421Z,23.56
2017-05-04T22:08:03.987Z,23.86
2017-05-04T22:10:31.917Z,23.82
2017-05-04T22:12:59.839Z,24.64
2017-05-04T22:15:27.807Z,24.06
2017-05-04T22:17:55.736Z,25.92
2017-05-04T22:20:23.659Z,22.68
2017-05-04T22:22:51.620Z,23.22
2017-05-04T22:25:19.568Z,24.50
2017-05-04T22:27:47.496Z,24.56
2017-05-04T22:30:15.053Z,24.34
2017-05-04T22:32:43.356Z,24.94
2017-05-04T22:35:10.893Z,24.38
2017-05-04T22:37:39.207Z,22.82
2017-05-04T22:40:07.144Z,20.86
2017-05-04T22:42:34.714Z,19.52
2017-05-04T22:45:02.651Z,20.50
2017-05-04T22:47:30.584Z,21.50
2017-05-04T22:49:58.520Z,22.94
2017-05-04T22:52:26.485Z,22.02
2017-05-04T22:54:54.779Z,19.22
2017-05-04T22:57:22.720Z,20.50
2017-05-04T22:59:51.048Z,19.80
2017-05-04T23:02:18.983Z,20.48
2017-05-04T23:04:46.911Z,19.72
2017-05-04T23:07:14.871Z,21.78
2017-05-04T23:09:42.802Z,22.26
2017-05-04T23:12:10.736Z,20.40
2017-05-04T23:14:38.295Z,23.30
2017-05-04T23:17:06.232Z,23.36
2017-05-04T23:19:33.759Z,22.52
2017-05-04T23:22:01.324Z,21.62
2017-05-04T23:24:29.263Z,23.54
2017-05-04T23:26:57.191Z,22.46
2017-05-04T23:29:25.175Z,23.56
2017-05-04T23:31:53.098Z,24.32
2017-05-04T23:34:21.081Z,21.78
2017-05-04T23:36:49.438Z,23.88
2017-05-04T23:39:17.374Z,25.30
2017-05-04T23:41:45.331Z,25.20
2017-05-04T23:44:13.288Z,24.52
2017-05-04T23:46:41.216Z,24.72
2017-05-04T23:49:09.520Z,28.22
2017-05-04T23:51:37.470Z,23.56
2017-05-04T23:54:06.787Z,24.66
2017-05-04T23:56:34.719Z,25.38
2017-05-04T23:59:02.657Z,24.72
